X

Important NEWS



New Hub Active

Miami is our new hub! Old members can request transfer via hr@dlxairways.net

Thank you very much and have nice flight.


Deluxe Airways.

X

Tours



Hello again, we created one nice test tour for all pilots to attend. also this is ment to be testing of our tour system

Available Tours

If you find some issues please inform us.

Thank you very much and have nice flight.


Deluxe Airways.

 METAR AND TAF INFORMATION
ArrayMETAR FOR LCLK
4715581 4 LCLK 250630Z 09004KT 9999 FEW003 32/23 Q1009 NOSIG LCLK 2019-08-25T06:30:00Z 34.87 33.62 32.0 23.0 90 4 6.21 29.793306 TRUE VFR METAR 2.0 LCLK 250600Z 09004KT 9999 FEW005 32/22 Q1009 NOSIG LCLK 2019-08-25T06:00:00Z 34.87 33.62 32.0 22.0 90 4 6.21 29.793306 TRUE VFR METAR 2.0 LCLK 250530Z 05003KT 020V090 CAVOK 31/18 Q1009 NOSIG LCLK 2019-08-25T05:30:00Z 34.87 33.62 31.0 18.0 50 3 6.21 29.793306 TRUE VFR METAR 2.0 LCLK 250500Z 35003KT 260V020 CAVOK 29/17 Q1009 NOSIG LCLK 2019-08-25T05:00:00Z 34.87 33.62 29.0 17.0 350 3 6.21 29.793306 TRUE VFR METAR 2.0

 AIRPORT MAP

 RUNWAY INFORMATION
Runway 04 Runway length 9776 ft Runway width 148 ft
Runway elevation 11 ft Runway displaced threshold 0 ft Runway heading 45
Runway 22 Runway length 9776 ft Runway width 148 ft
Runway elevation 6 ft Runway displaced threshold 575 ft Runway heading 225

 AIRPORT FREQUENCIES
Type APP Name APP Frequency 121.2 MHZ
Type ATIS Name ATIS Frequency 126.55 MHZ
Type TWR Name TWR Frequency 119.4 MHZ

 AIRPORT NEAR NAVIGATION AIDS
Type VOR-DME Name Larnaca Frequency 112800 KHZ
Type NDB Name Larnaca Frequency 432 KHZ



Powered by Virtual Airlines Manager [v2.6.2]

Template code change by DeluxeAir